createdAt,value
2019-05-14T00:03:13.884Z,7.13
2019-05-14T00:06:37.051Z,10.87
2019-05-14T00:10:01.178Z,8.03
2019-05-14T00:13:24.062Z,7.50
2019-05-14T00:16:11.867Z,9.60
2019-05-14T00:19:05.877Z,9.87
2019-05-14T00:22:38.093Z,3.63
2019-05-14T00:25:34.403Z,6.87
2019-05-14T00:28:31.529Z,9.77
2019-05-14T00:31:23.262Z,7.83
2019-05-14T00:34:15.010Z,9.80
2019-05-14T00:37:13.919Z,14.80
2019-05-14T00:40:11.577Z,14.90
2019-05-14T00:43:07.187Z,6.73
2019-05-14T00:45:52.773Z,14.17
2019-05-14T00:48:48.680Z,16.87
2019-05-14T00:51:44.214Z,12.37
2019-05-14T00:54:42.790Z,13.47
2019-05-14T00:57:28.402Z,6.80
2019-05-14T01:00:13.980Z,8.63
2019-05-14T01:03:11.108Z,14.17
2019-05-14T01:05:56.991Z,14.07
2019-05-14T01:08:52.224Z,7.37
2019-05-14T01:11:51.304Z,15.43
2019-05-14T01:14:44.129Z,13.40
2019-05-14T01:17:41.993Z,12.27
2019-05-14T01:20:32.738Z,13.70
2019-05-14T01:23:25.179Z,6.40
2019-05-14T01:26:11.479Z,9.20
2019-05-14T01:28:57.640Z,8.63
2019-05-14T01:31:56.848Z,10.43
2019-05-14T01:34:42.386Z,9.20
2019-05-14T01:37:41.795Z,9.50
2019-05-14T01:40:34.195Z,9.60
2019-05-14T01:43:27.675Z,7.77
2019-05-14T01:46:24.524Z,9.43
2019-05-14T01:49:23.888Z,9.87
2019-05-14T01:52:11.190Z,12.40
2019-05-14T01:55:07.622Z,8.00
2019-05-14T01:58:11.349Z,8.43
2019-05-14T02:01:03.402Z,7.67
2019-05-14T02:03:55.285Z,10.83
2019-05-14T02:06:57.277Z,11.27
2019-05-14T02:09:42.843Z,9.47
2019-05-14T02:12:42.433Z,13.57
2019-05-14T02:15:39.262Z,9.97
2019-05-14T02:18:26.090Z,8.20
2019-05-14T02:21:11.930Z,5.80
2019-05-14T02:24:07.426Z,5.70
2019-05-14T02:27:06.456Z,8.90
2019-05-14T02:30:05.240Z,5.97
2019-05-14T02:33:10.047Z,9.80
2019-05-14T02:35:55.693Z,14.10
2019-05-14T02:38:54.579Z,7.30
2019-05-14T02:41:49.630Z,9.77
2019-05-14T02:44:49.020Z,9.93
2019-05-14T02:47:40.138Z,9.37
2019-05-14T02:50:39.571Z,19.07
2019-05-14T02:53:25.844Z,11.07
2019-05-14T02:56:24.562Z,15.83
2019-05-14T02:59:20.210Z,4.93
2019-05-14T03:02:19.151Z,7.10
2019-05-14T03:05:19.178Z,6.90
2019-05-14T03:08:05.081Z,5.37
2019-05-14T03:11:04.754Z,11.20
2019-05-14T03:14:03.434Z,9.90
2019-05-14T03:16:49.734Z,4.60
2019-05-14T03:19:42.609Z,10.20
2019-05-14T03:22:46.729Z,8.27
2019-05-14T03:25:22.216Z,5.13
2019-05-14T03:28:21.540Z,7.80
2019-05-14T03:31:14.723Z,41.37
2019-05-14T03:34:03.191Z,16.60
2019-05-14T03:36:52.822Z,18.70
2019-05-14T03:39:40.621Z,12.57
2019-05-14T03:42:19.410Z,21.57
2019-05-14T03:45:12.258Z,9.20
2019-05-14T03:47:58.913Z,13.73
2019-05-14T03:50:49.361Z,4.23
2019-05-14T03:54:00.603Z,5.23
2019-05-14T03:56:41.019Z,14.67
2019-05-14T03:59:29.145Z,13.90
2019-05-14T04:02:21.687Z,12.93
2019-05-14T04:05:22.637Z,5.47
2019-05-14T04:08:12.455Z,172.03
2019-05-14T04:10:59.147Z,201.37
2019-05-14T04:13:51.719Z,117.17
2019-05-14T04:16:39.832Z,78.53
2019-05-14T04:19:35.089Z,60.00
2019-05-14T04:22:39.319Z,51.73
2019-05-14T04:25:24.962Z,27.97
2019-05-14T04:28:24.704Z,24.87
2019-05-14T04:31:15.217Z,54.27
2019-05-14T04:34:14.556Z,123.47
2019-05-14T04:37:11.548Z,123.13
2019-05-14T04:40:13.305Z,26.97
2019-05-14T04:43:10.226Z,42.50
2019-05-14T04:46:10.029Z,27.60
2019-05-14T04:49:00.856Z,33.53
2019-05-14T04:51:49.951Z,41.17
2019-05-14T04:54:49.617Z,57.33
2019-05-14T04:57:44.360Z,30.83
2019-05-14T05:00:30.769Z,25.37
2019-05-14T05:03:26.126Z,79.03
2019-05-14T05:06:19.194Z,158.63
2019-05-14T05:09:20.078Z,203.57
2019-05-14T05:12:19.824Z,130.23
2019-05-14T05:15:19.799Z,81.40
2019-05-14T05:18:19.372Z,63.23
2019-05-14T05:21:18.989Z,58.53
2019-05-14T05:24:18.438Z,32.10
2019-05-14T05:27:14.184Z,6.80
2019-05-14T05:30:08.526Z,11.30
2019-05-14T05:32:54.115Z,9.47
2019-05-14T05:35:49.488Z,10.90
2019-05-14T05:38:43.510Z,16.23
2019-05-14T05:41:34.887Z,17.30
2019-05-14T05:44:28.748Z,10.67
2019-05-14T05:47:30.776Z,24.17
2019-05-14T05:50:16.116Z,10.83
2019-05-14T05:53:15.060Z,9.17
2019-05-14T05:56:08.945Z,17.57
2019-05-14T05:59:04.551Z,12.70
2019-05-14T06:02:03.009Z,12.40
2019-05-14T06:04:49.901Z,9.20
2019-05-14T06:07:45.414Z,13.63
2019-05-14T06:10:31.074Z,38.40
2019-05-14T06:13:29.507Z,64.87
2019-05-14T06:16:14.986Z,39.27
2019-05-14T06:19:08.258Z,59.83
2019-05-14T06:22:09.587Z,37.07
2019-05-14T06:24:54.032Z,23.90
2019-05-14T06:27:58.913Z,31.73
2019-05-14T06:30:50.504Z,39.40
2019-05-14T06:33:35.903Z,55.07
2019-05-14T06:36:31.712Z,27.20
2019-05-14T06:39:33.538Z,39.47
2019-05-14T06:42:19.489Z,18.93
2019-05-14T06:45:05.338Z,33.87
2019-05-14T06:47:50.832Z,22.57
2019-05-14T06:50:53.262Z,22.20
2019-05-14T06:53:44.843Z,21.07
2019-05-14T06:56:41.332Z,17.10
2019-05-14T06:59:37.916Z,14.17
2019-05-14T07:02:08.689Z,12.17
2019-05-14T07:04:39.614Z,15.57
2019-05-14T07:07:09.896Z,12.17
2019-05-14T07:09:40.026Z,8.67
2019-05-14T07:12:10.210Z,31.53
2019-05-14T07:14:40.320Z,24.83
2019-05-14T07:17:10.573Z,18.37
2019-05-14T07:19:40.764Z,17.20
2019-05-14T07:22:11.404Z,15.97
2019-05-14T07:24:41.527Z,18.90
2019-05-14T07:27:11.771Z,24.20
2019-05-14T07:29:41.904Z,17.47
2019-05-14T07:32:12.396Z,24.07
2019-05-14T07:34:42.565Z,13.37
2019-05-14T07:37:12.715Z,22.57
2019-05-14T07:39:42.771Z,14.83
2019-05-14T07:42:12.840Z,16.83
2019-05-14T07:44:43.464Z,16.97
2019-05-14T07:47:13.519Z,28.73
2019-05-14T07:49:43.890Z,20.80
2019-05-14T07:52:14.238Z,14.33
2019-05-14T07:54:44.343Z,16.60
2019-05-14T07:57:14.432Z,17.67
2019-05-14T07:59:44.671Z,18.70
2019-05-14T08:02:14.784Z,20.00
2019-05-14T08:04:44.857Z,25.83
2019-05-14T08:07:17.822Z,19.77
2019-05-14T08:09:47.959Z,9.47
2019-05-14T08:12:19.261Z,14.47
2019-05-14T08:15:10.185Z,14.40
2019-05-14T08:17:21.228Z,21.00
2019-05-14T08:19:51.309Z,17.70
2019-05-14T08:22:21.660Z,15.17
2019-05-14T08:24:51.721Z,11.80
2019-05-14T08:27:21.908Z,23.03
2019-05-14T08:29:52.051Z,15.20
2019-05-14T08:32:22.107Z,13.03
2019-05-14T08:34:52.450Z,18.53
2019-05-14T08:37:22.553Z,17.70
2019-05-14T08:39:52.577Z,21.87
2019-05-14T08:42:22.996Z,17.30
2019-05-14T08:44:53.007Z,12.67
2019-05-14T08:47:23.684Z,24.13
2019-05-14T08:49:53.937Z,8.73
2019-05-14T08:52:24.029Z,20.53
2019-05-14T08:55:07.144Z,15.20
2019-05-14T08:57:26.155Z,15.23
2019-05-14T08:59:59.306Z,15.70
2019-05-14T09:02:29.627Z,10.87
2019-05-14T09:05:03.819Z,10.83
2019-05-14T09:07:31.882Z,22.80
2019-05-14T09:10:01.914Z,24.00
2019-05-14T09:12:32.019Z,19.20
2019-05-14T09:15:02.273Z,15.40
2019-05-14T09:17:32.351Z,8.33
2019-05-14T09:20:06.982Z,12.50
2019-05-14T09:22:34.073Z,11.97
2019-05-14T09:25:04.291Z,11.47
2019-05-14T09:27:34.422Z,15.10
2019-05-14T09:30:05.801Z,22.47
2019-05-14T09:32:38.828Z,16.63
2019-05-14T09:35:09.763Z,20.53
2019-05-14T09:37:40.340Z,17.67
2019-05-14T09:40:10.480Z,24.17
2019-05-14T09:42:40.633Z,23.07
2019-05-14T09:45:11.777Z,7.70
2019-05-14T09:47:42.152Z,14.90
2019-05-14T09:50:19.356Z,15.63
2019-05-14T09:52:44.196Z,15.67
2019-05-14T09:55:14.446Z,17.77
2019-05-14T09:57:44.564Z,24.23
2019-05-14T10:00:15.526Z,9.53
2019-05-14T10:02:48.881Z,17.07
2019-05-14T10:05:19.463Z,20.80
2019-05-14T10:07:49.771Z,10.13
2019-05-14T10:10:20.205Z,25.53
2019-05-14T10:12:56.261Z,17.37
2019-05-14T10:15:22.355Z,14.43
2019-05-14T10:17:52.736Z,19.53
2019-05-14T10:20:36.558Z,13.93
2019-05-14T10:22:54.918Z,15.63
2019-05-14T10:25:25.217Z,10.13
2019-05-14T10:27:55.580Z,17.77
2019-05-14T10:30:25.801Z,14.60
2019-05-14T10:33:07.072Z,17.97
2019-05-14T10:35:28.642Z,19.57
2019-05-14T10:37:59.801Z,15.83
2019-05-14T10:40:30.368Z,20.17
2019-05-14T10:43:01.938Z,19.67
2019-05-14T10:45:32.148Z,26.40
2019-05-14T10:48:02.911Z,16.93
2019-05-14T10:50:33.036Z,12.17
2019-05-14T10:53:03.976Z,19.90
2019-05-14T10:55:34.084Z,34.87
2019-05-14T10:58:04.538Z,14.70
2019-05-14T11:00:34.784Z,10.20
2019-05-14T11:03:05.549Z,11.63
2019-05-14T11:05:35.612Z,12.30
2019-05-14T11:08:05.689Z,16.50
2019-05-14T11:10:35.816Z,15.53
2019-05-14T11:13:08.775Z,12.70
2019-05-14T11:15:39.546Z,14.20
2019-05-14T11:18:09.249Z,18.30
2019-05-14T11:20:42.195Z,19.43
2019-05-14T11:23:11.210Z,18.63
2019-05-14T11:25:41.624Z,18.40
2019-05-14T11:28:11.710Z,18.30
2019-05-14T11:30:41.958Z,19.43
2019-05-14T11:33:12.246Z,20.10
2019-05-14T11:35:42.920Z,14.77
2019-05-14T11:38:28.528Z,18.43
2019-05-14T11:40:44.897Z,11.53
2019-05-14T11:43:15.260Z,9.77
2019-05-14T11:45:48.297Z,13.40
2019-05-14T11:48:19.250Z,11.40
2019-05-14T11:50:49.491Z,13.70
2019-05-14T11:53:20.537Z,15.30
2019-05-14T11:55:50.920Z,9.70
2019-05-14T11:58:21.620Z,15.23
2019-05-14T12:00:52.397Z,15.47
2019-05-14T12:03:22.424Z,11.67
2019-05-14T12:05:52.466Z,9.70
2019-05-14T12:08:22.559Z,12.20
2019-05-14T12:10:53.072Z,10.27
2019-05-14T12:13:23.200Z,20.93
2019-05-14T12:15:53.268Z,9.97
2019-05-14T12:18:23.924Z,9.10
2019-05-14T12:20:54.075Z,14.23
2019-05-14T12:23:24.193Z,9.80
2019-05-14T12:25:54.367Z,16.33
2019-05-14T12:28:24.448Z,19.20
2019-05-14T12:30:55.175Z,12.03
2019-05-14T12:33:25.317Z,16.37
2019-05-14T12:35:55.635Z,11.63
2019-05-14T12:38:25.688Z,9.73
2019-05-14T12:40:58.359Z,14.23
2019-05-14T12:43:28.568Z,14.00
2019-05-14T12:45:59.448Z,9.80
2019-05-14T12:48:30.015Z,9.70
2019-05-14T12:51:00.178Z,11.03
2019-05-14T12:53:30.384Z,8.47
2019-05-14T12:56:01.153Z,14.30
2019-05-14T12:58:31.407Z,11.90
2019-05-14T13:01:02.763Z,12.87
2019-05-14T13:03:32.888Z,12.57
2019-05-14T13:06:02.973Z,12.47
2019-05-14T13:08:33.002Z,6.90
2019-05-14T13:11:03.102Z,9.77
2019-05-14T13:13:33.187Z,13.00
2019-05-14T13:16:04.437Z,13.83
2019-05-14T13:18:34.662Z,20.40
2019-05-14T13:21:04.829Z,18.57
2019-05-14T13:23:35.153Z,12.63
2019-05-14T13:26:05.226Z,11.73
2019-05-14T13:28:35.528Z,17.70
2019-05-14T13:31:05.782Z,13.13
2019-05-14T13:33:39.013Z,44.53
2019-05-14T13:36:07.969Z,9.13
2019-05-14T13:38:39.805Z,14.97
2019-05-14T13:41:09.915Z,13.25
2019-05-14T13:43:40.317Z,17.50
2019-05-14T13:46:14.682Z,10.90
2019-05-14T13:48:43.450Z,13.80
2019-05-14T13:51:14.623Z,19.33
2019-05-14T13:53:44.810Z,16.77
2019-05-14T13:56:14.948Z,14.80
2019-05-14T13:58:45.701Z,10.17
2019-05-14T14:01:19.428Z,14.10
2019-05-14T14:04:04.629Z,12.90
2019-05-14T14:06:21.524Z,8.47
2019-05-14T14:08:52.589Z,17.87
2019-05-14T14:11:23.264Z,11.03
2019-05-14T14:13:53.377Z,6.17
2019-05-14T14:16:23.465Z,20.83
2019-05-14T14:18:53.911Z,6.00
2019-05-14T14:21:24.525Z,11.83
2019-05-14T14:23:54.601Z,11.70
2019-05-14T14:26:24.717Z,8.33
2019-05-14T14:28:55.796Z,14.30
2019-05-14T14:31:28.290Z,14.83
2019-05-14T14:33:57.706Z,9.93
2019-05-14T14:36:29.854Z,18.43
2019-05-14T14:38:59.542Z,18.00
2019-05-14T14:41:29.657Z,9.20
2019-05-14T14:43:59.998Z,12.50
2019-05-14T14:46:30.522Z,12.03
2019-05-14T14:49:02.741Z,9.33
2019-05-14T14:51:32.577Z,12.70
2019-05-14T14:54:10.792Z,12.07
2019-05-14T14:56:34.518Z,21.53
2019-05-14T14:59:05.244Z,13.77
2019-05-14T15:01:39.842Z,13.70
2019-05-14T15:04:13.781Z,13.37
2019-05-14T15:06:40.595Z,10.10
2019-05-14T15:09:10.731Z,11.17
2019-05-14T15:11:41.058Z,16.40
2019-05-14T15:14:11.144Z,18.90
2019-05-14T15:16:41.193Z,11.57
2019-05-14T15:19:11.498Z,22.17
2019-05-14T15:21:41.657Z,18.83
2019-05-14T15:24:15.419Z,11.43
2019-05-14T15:26:44.026Z,11.07
2019-05-14T15:29:14.108Z,17.30
2019-05-14T15:31:44.162Z,14.87
2019-05-14T15:34:14.292Z,9.80
2019-05-14T15:36:44.373Z,13.10
2019-05-14T15:39:15.198Z,8.20
2019-05-14T15:41:45.869Z,17.07
2019-05-14T15:44:19.390Z,16.70
2019-05-14T15:46:49.278Z,17.13
2019-05-14T15:49:19.720Z,17.60
2019-05-14T15:51:49.956Z,18.63
2019-05-14T15:54:35.998Z,17.13
2019-05-14T15:56:52.532Z,15.50
2019-05-14T15:59:22.624Z,16.20
2019-05-14T16:01:52.755Z,11.20
2019-05-14T16:04:22.822Z,9.27
2019-05-14T16:06:52.862Z,14.30
2019-05-14T16:09:22.914Z,16.00
2019-05-14T16:11:53.525Z,14.27
2019-05-14T16:14:23.701Z,13.53
2019-05-14T16:16:53.957Z,13.73
2019-05-14T16:19:25.209Z,8.90
2019-05-14T16:21:55.272Z,13.37
2019-05-14T16:24:25.675Z,13.43
2019-05-14T16:27:08.376Z,7.23
2019-05-14T16:29:45.550Z,10.87
2019-05-14T16:32:10.762Z,12.63
2019-05-14T16:34:41.549Z,13.57
2019-05-14T16:37:11.534Z,14.70
2019-05-14T16:39:42.241Z,13.90
2019-05-14T16:42:12.421Z,19.87
2019-05-14T16:44:42.846Z,12.73
2019-05-14T16:47:13.006Z,11.20
2019-05-14T16:49:43.141Z,16.77
2019-05-14T16:52:13.429Z,10.77
2019-05-14T16:54:43.881Z,7.40
2019-05-14T16:57:13.906Z,11.90
2019-05-14T16:59:44.921Z,12.73
2019-05-14T17:02:15.137Z,13.57
2019-05-14T17:04:45.226Z,9.37
2019-05-14T17:07:15.272Z,10.77
2019-05-14T17:09:45.311Z,17.90
2019-05-14T17:12:20.072Z,13.50
2019-05-14T17:14:47.788Z,10.43
2019-05-14T17:17:20.065Z,9.97
2019-05-14T17:19:50.336Z,8.00
2019-05-14T17:22:28.676Z,13.47
2019-05-14T17:24:53.941Z,12.20
2019-05-14T17:27:24.570Z,8.73
2019-05-14T17:29:54.650Z,17.57
2019-05-14T17:32:24.795Z,13.90
2019-05-14T17:34:54.937Z,10.00
2019-05-14T17:37:24.995Z,12.67
2019-05-14T17:39:55.683Z,10.43
2019-05-14T17:42:28.334Z,27.63
2019-05-14T17:44:58.922Z,16.87
2019-05-14T17:47:29.336Z,19.03
2019-05-14T17:49:59.772Z,15.63
2019-05-14T17:52:30.309Z,20.93
2019-05-14T17:55:00.921Z,17.50
2019-05-14T17:57:34.577Z,21.07
2019-05-14T18:00:05.309Z,24.40
2019-05-14T18:02:35.980Z,23.83
2019-05-14T18:05:09.518Z,11.43
2019-05-14T18:07:38.619Z,18.53
2019-05-14T18:10:09.952Z,14.30
2019-05-14T18:12:40.458Z,10.17
2019-05-14T18:15:13.310Z,12.60
2019-05-14T18:17:43.928Z,16.33
2019-05-14T18:20:14.454Z,12.00
2019-05-14T18:22:44.812Z,20.20
2019-05-14T18:25:15.088Z,9.10
2019-05-14T18:27:45.424Z,14.73
2019-05-14T18:30:18.214Z,17.87
2019-05-14T18:32:48.863Z,11.43
2019-05-14T18:35:19.461Z,13.00
2019-05-14T18:37:49.514Z,15.67
2019-05-14T18:40:20.019Z,68.10
2019-05-14T18:42:50.149Z,32.97
2019-05-14T18:45:20.665Z,20.37
2019-05-14T18:47:50.935Z,23.83
2019-05-14T18:50:21.228Z,26.20
2019-05-14T18:52:51.451Z,19.30
2019-05-14T18:55:22.380Z,21.10
2019-05-14T18:57:53.149Z,22.23
2019-05-14T19:00:29.304Z,12.13
2019-05-14T19:02:57.777Z,13.40
2019-05-14T19:05:29.489Z,9.17
2019-05-14T19:07:59.758Z,18.57
2019-05-14T19:10:29.883Z,13.13
2019-05-14T19:13:00.252Z,11.60
2019-05-14T19:15:30.399Z,8.73
2019-05-14T19:18:01.430Z,9.30
2019-05-14T19:20:31.708Z,12.80
2019-05-14T19:23:02.016Z,12.33
2019-05-14T19:25:32.480Z,7.70
2019-05-14T19:28:02.604Z,9.70
2019-05-14T19:30:32.762Z,10.03
2019-05-14T19:33:03.767Z,15.73
2019-05-14T19:35:35.586Z,8.00
2019-05-14T19:38:08.773Z,11.90
2019-05-14T19:40:39.287Z,13.20
2019-05-14T19:43:09.631Z,13.17
2019-05-14T19:45:40.195Z,10.50
2019-05-14T19:48:10.426Z,24.07
2019-05-14T19:50:40.646Z,22.90
2019-05-14T19:53:11.378Z,17.17
2019-05-14T19:55:41.683Z,15.63
2019-05-14T19:58:12.028Z,9.67
2019-05-14T20:00:45.004Z,10.30
2019-05-14T20:03:18.536Z,15.20
2019-05-14T20:05:47.952Z,13.83
2019-05-14T20:08:18.968Z,20.00
2019-05-14T20:10:49.272Z,13.17
2019-05-14T20:13:19.893Z,14.77
2019-05-14T20:15:50.209Z,10.53
2019-05-14T20:18:20.379Z,14.93
2019-05-14T20:20:51.010Z,9.90
2019-05-14T20:23:22.756Z,10.67
2019-05-14T20:25:54.486Z,15.93
2019-05-14T20:28:24.654Z,14.27
2019-05-14T20:30:54.959Z,9.97
2019-05-14T20:33:25.508Z,10.03
2019-05-14T20:35:58.996Z,8.20
2019-05-14T20:38:28.970Z,6.73
2019-05-14T20:40:59.581Z,6.80
2019-05-14T20:43:30.246Z,12.80
2019-05-14T20:46:01.604Z,6.77
2019-05-14T20:48:32.145Z,12.47
2019-05-14T20:51:02.711Z,12.00
2019-05-14T20:53:32.788Z,6.60
2019-05-14T20:56:02.945Z,6.00
2019-05-14T20:58:34.388Z,12.60
2019-05-14T21:01:05.234Z,12.00
2019-05-14T21:03:35.505Z,12.33
2019-05-14T21:06:06.021Z,7.80
2019-05-14T21:08:38.012Z,6.80
2019-05-14T21:11:08.259Z,6.03
2019-05-14T21:13:38.934Z,6.80
2019-05-14T21:16:10.853Z,7.40
2019-05-14T21:18:41.297Z,8.77
2019-05-14T21:21:11.556Z,10.03
2019-05-14T21:23:43.363Z,9.70
2019-05-14T21:26:14.076Z,6.50
2019-05-14T21:28:45.127Z,9.43
2019-05-14T21:31:15.252Z,6.23
2019-05-14T21:33:45.914Z,5.83
2019-05-14T21:36:19.093Z,8.57
2019-05-14T21:38:49.118Z,13.30
2019-05-14T21:41:20.547Z,10.70
2019-05-14T21:43:50.824Z,5.20
2019-05-14T21:46:21.536Z,9.13
2019-05-14T21:48:53.289Z,5.83
2019-05-14T21:51:23.643Z,10.93
2019-05-14T21:53:54.089Z,7.47
2019-05-14T21:56:25.088Z,7.67
2019-05-14T21:58:55.228Z,5.13
2019-05-14T22:01:27.703Z,9.20
2019-05-14T22:03:59.314Z,11.43
2019-05-14T22:06:30.446Z,7.60
2019-05-14T22:09:01.259Z,9.13
2019-05-14T22:11:31.413Z,6.37
2019-05-14T22:14:02.060Z,8.30
2019-05-14T22:16:33.319Z,6.03
2019-05-14T22:19:04.016Z,4.87
2019-05-14T22:21:34.161Z,11.90
2019-05-14T22:24:04.184Z,7.03
2019-05-14T22:26:34.313Z,5.87
2019-05-14T22:29:04.409Z,7.63
2019-05-14T22:31:35.092Z,5.90
2019-05-14T22:34:05.277Z,12.40
2019-05-14T22:36:35.552Z,9.10
2019-05-14T22:39:07.046Z,6.40
2019-05-14T22:41:38.322Z,6.93
2019-05-14T22:44:09.515Z,2.70
2019-05-14T22:46:40.272Z,14.20
2019-05-14T22:49:10.606Z,8.13
2019-05-14T22:51:40.864Z,9.53
2019-05-14T22:54:11.392Z,7.20
2019-05-14T22:56:41.541Z,15.83
2019-05-14T22:59:11.872Z,8.80
2019-05-14T23:01:42.380Z,5.00
2019-05-14T23:04:12.540Z,5.77
2019-05-14T23:06:42.628Z,9.70
2019-05-14T23:09:16.245Z,7.43
2019-05-14T23:11:45.224Z,8.27
2019-05-14T23:14:15.618Z,6.57
2019-05-14T23:16:45.923Z,6.10
2019-05-14T23:19:16.023Z,5.50
2019-05-14T23:21:48.328Z,6.10
2019-05-14T23:24:19.073Z,12.03
2019-05-14T23:26:49.444Z,8.13
2019-05-14T23:29:19.960Z,41.07
2019-05-14T23:31:50.436Z,143.37
2019-05-14T23:34:20.828Z,123.43
2019-05-14T23:36:50.964Z,72.70
2019-05-14T23:39:21.805Z,23.10
2019-05-14T23:41:52.823Z,34.30
2019-05-14T23:44:22.924Z,20.93
2019-05-14T23:46:53.002Z,16.07
2019-05-14T23:49:23.278Z,6.83
2019-05-14T23:51:53.382Z,21.53
2019-05-14T23:54:23.602Z,24.33
2019-05-14T23:56:53.793Z,10.10
2019-05-14T23:59:24.819Z,12.93
